Time;durP1;ratioP1;P1;durP2;ratioP2;P2;SDS_P1;SDS_P2;PMS_P1;PMS_P2;Temp;Humidity;BMP_temperature;BMP_pressure;BME280_temperature;BME280_humidity;BME280_pressure;Samples;Min_cycle;Max_cycle;Signal;HPM_P1;HPM_P2
2023/08/18 00:01:09;;;;;;;;;;;23.30;63.30;;;;;;10177277;28;93921;-56
2023/08/18 00:06:11;;;;;;;;;;;23.30;63.30;;;;;;10175502;28;94592;-55
2023/08/18 00:11:13;;;;;;;;;;;23.30;63.30;;;;;;10177152;28;93394;-56
2023/08/18 00:16:15;;;;;;;;;;;23.20;63.30;;;;;;10203986;28;94517;-56
2023/08/18 00:21:17;;;;;;;;;;;23.20;63.30;;;;;;10189658;28;94484;-56
2023/08/18 00:26:19;;;;;;;;;;;23.20;63.40;;;;;;10163313;28;94784;-56
2023/08/18 00:31:21;;;;;;;;;;;23.20;63.40;;;;;;10183691;28;92750;-57
2023/08/18 00:36:22;;;;;;;;;;;23.20;63.40;;;;;;10177330;28;94187;-56
2023/08/18 00:41:25;;;;;;;;;;;23.20;63.40;;;;;;10180256;28;93396;-56
2023/08/18 00:46:27;;;;;;;;;;;23.20;63.50;;;;;;10165271;28;96199;-56
2023/08/18 00:51:29;;;;;;;;;;;23.10;63.40;;;;;;10172706;28;93844;-56
2023/08/18 00:56:31;;;;;;;;;;;23.10;63.50;;;;;;10180950;28;94410;-56
2023/08/18 01:01:33;;;;;;;;;;;23.10;63.50;;;;;;10193123;28;93505;-56
2023/08/18 01:06:38;;;;;;;;;;;23.00;63.40;;;;;;10192343;28;93247;-56
2023/08/18 01:11:59;;;;;;;;;;;23.00;63.50;;;;;;10187231;28;93831;-56
2023/08/18 01:17:03;;;;;;;;;;;23.10;63.70;;;;;;10193429;28;94455;-57
2023/08/18 01:22:06;;;;;;;;;;;23.00;63.60;;;;;;10189665;28;93057;-56
2023/08/18 01:27:08;;;;;;;;;;;23.00;63.60;;;;;;10179844;28;93609;-57
2023/08/18 01:32:11;;;;;;;;;;;23.00;63.60;;;;;;10176822;28;93490;-55
2023/08/18 01:37:14;;;;;;;;;;;23.00;63.60;;;;;;10179332;28;95853;-55
2023/08/18 01:42:16;;;;;;;;;;;23.00;63.70;;;;;;10203203;28;93493;-56
2023/08/18 01:47:17;;;;;;;;;;;23.00;63.70;;;;;;10187550;28;94388;-55
2023/08/18 01:52:19;;;;;;;;;;;23.00;63.80;;;;;;10190777;28;94198;-56
2023/08/18 01:57:21;;;;;;;;;;;22.90;63.80;;;;;;10175751;28;93251;-56
2023/08/18 02:02:23;;;;;;;;;;;22.90;63.70;;;;;;10186765;28;93481;-56
2023/08/18 02:07:24;;;;;;;;;;;22.90;63.80;;;;;;10174660;28;94771;-55
2023/08/18 02:12:26;;;;;;;;;;;22.90;63.80;;;;;;10183875;28;93042;-57
2023/08/18 02:17:29;;;;;;;;;;;22.90;63.80;;;;;;10180787;28;93897;-57
2023/08/18 02:22:31;;;;;;;;;;;22.90;63.80;;;;;;10189513;28;94766;-56
2023/08/18 02:27:33;;;;;;;;;;;22.90;63.80;;;;;;10177326;28;96931;-56
2023/08/18 02:32:35;;;;;;;;;;;22.90;63.80;;;;;;10187835;28;94124;-55
2023/08/18 02:37:38;;;;;;;;;;;22.90;63.90;;;;;;10184659;28;93478;-55
2023/08/18 02:42:41;;;;;;;;;;;22.90;64.00;;;;;;10180996;28;94780;-55
2023/08/18 02:47:42;;;;;;;;;;;22.90;63.90;;;;;;10191980;28;94694;-56
2023/08/18 02:52:44;;;;;;;;;;;22.80;63.80;;;;;;10184379;28;92826;-56
2023/08/18 02:57:46;;;;;;;;;;;22.80;63.90;;;;;;10180962;28;93806;-56
2023/08/18 03:02:49;;;;;;;;;;;22.80;63.80;;;;;;10187565;28;92873;-56
2023/08/18 03:07:51;;;;;;;;;;;22.80;63.90;;;;;;10164536;28;93474;-56
2023/08/18 03:12:53;;;;;;;;;;;22.80;63.90;;;;;;10187562;28;93966;-56
2023/08/18 03:17:55;;;;;;;;;;;22.80;63.90;;;;;;10181090;28;96885;-54
2023/08/18 03:22:56;;;;;;;;;;;22.80;63.90;;;;;;10191035;28;92858;-55
2023/08/18 03:27:58;;;;;;;;;;;22.90;63.90;;;;;;10189858;28;93780;-55
2023/08/18 03:33:00;;;;;;;;;;;22.80;63.80;;;;;;10188590;28;94402;-55
2023/08/18 03:38:02;;;;;;;;;;;22.80;63.80;;;;;;10174771;28;93619;-56
2023/08/18 03:43:04;;;;;;;;;;;22.90;63.90;;;;;;10178966;28;94520;-56
2023/08/18 03:48:06;;;;;;;;;;;22.90;63.80;;;;;;10190511;28;94222;-56
2023/08/18 03:53:09;;;;;;;;;;;22.80;63.80;;;;;;10187523;28;92574;-56
2023/08/18 03:58:11;;;;;;;;;;;22.90;63.80;;;;;;10185826;28;94539;-56
2023/08/18 04:03:12;;;;;;;;;;;22.80;63.80;;;;;;10173735;28;94468;-55
2023/08/18 04:08:15;;;;;;;;;;;22.80;63.80;;;;;;10182392;28;96243;-56
2023/08/18 04:13:17;;;;;;;;;;;22.80;63.80;;;;;;10181957;28;93442;-56
2023/08/18 04:18:19;;;;;;;;;;;22.80;63.70;;;;;;10191481;28;94061;-55
2023/08/18 04:23:21;;;;;;;;;;;22.80;63.70;;;;;;10163654;28;93794;-55
2023/08/18 04:28:22;;;;;;;;;;;22.80;63.70;;;;;;10177541;28;94678;-56
2023/08/18 04:33:24;;;;;;;;;;;22.80;63.70;;;;;;10192618;28;94557;-56
2023/08/18 04:38:26;;;;;;;;;;;22.90;63.70;;;;;;10178962;28;93676;-55
2023/08/18 04:43:29;;;;;;;;;;;22.90;63.70;;;;;;10200291;28;93513;-55
2023/08/18 04:48:31;;;;;;;;;;;22.90;63.70;;;;;;10642484;23;93861;-62
2023/08/18 04:53:33;;;;;;;;;;;22.90;64.70;;;;;;10142384;28;93584;-62
2023/08/18 04:58:35;;;;;;;;;;;22.90;63.60;;;;;;10132050;28;96168;-62
2023/08/18 05:03:37;;;;;;;;;;;22.90;63.60;;;;;;10152974;28;94501;-62
2023/08/18 05:08:40;;;;;;;;;;;22.90;63.60;;;;;;10145977;28;93441;-62
2023/08/18 05:13:43;;;;;;;;;;;22.90;63.60;;;;;;10148969;28;93854;-62
2023/08/18 05:18:44;;;;;;;;;;;22.90;63.60;;;;;;10142493;28;94391;-62
2023/08/18 05:23:47;;;;;;;;;;;22.90;63.70;;;;;;10144881;28;94077;-63
2023/08/18 05:28:49;;;;;;;;;;;22.90;63.70;;;;;;10156604;28;93948;-62
2023/08/18 05:33:50;;;;;;;;;;;22.90;63.60;;;;;;10141200;28;92865;-62
2023/08/18 05:38:52;;;;;;;;;;;22.90;63.70;;;;;;10153323;28;94072;-62
2023/08/18 05:43:55;;;;;;;;;;;23.00;63.70;;;;;;10153854;28;93478;-62
2023/08/18 05:48:57;;;;;;;;;;;23.00;63.70;;;;;;10141436;28;96693;-62
2023/08/18 05:53:59;;;;;;;;;;;23.00;63.70;;;;;;10161105;28;93842;-62
2023/08/18 05:59:01;;;;;;;;;;;23.00;63.80;;;;;;10143951;28;94392;-62
2023/08/18 06:04:02;;;;;;;;;;;23.00;63.90;;;;;;10157174;28;93642;-62
2023/08/18 06:09:04;;;;;;;;;;;23.00;63.80;;;;;;10138437;28;96915;-62
2023/08/18 06:14:06;;;;;;;;;;;23.10;63.90;;;;;;10151783;28;94407;-63
2023/08/18 06:19:08;;;;;;;;;;;23.10;63.90;;;;;;10155175;28;94747;-63
2023/08/18 06:24:11;;;;;;;;;;;23.10;63.90;;;;;;10149027;28;94026;-62
2023/08/18 06:29:12;;;;;;;;;;;23.10;64.00;;;;;;10120679;28;94759;-62
2023/08/18 06:34:14;;;;;;;;;;;23.10;64.10;;;;;;10138778;28;93779;-62
2023/08/18 06:39:16;;;;;;;;;;;23.20;64.10;;;;;;10155706;28;96550;-62
2023/08/18 06:44:17;;;;;;;;;;;23.20;64.10;;;;;;10134548;28;94405;-62
2023/08/18 06:49:19;;;;;;;;;;;23.10;64.10;;;;;;10133287;28;94487;-62
2023/08/18 06:54:21;;;;;;;;;;;23.20;64.40;;;;;;10155957;28;93773;-63
2023/08/18 06:59:22;;;;;;;;;;;23.20;64.40;;;;;;10143754;28;94037;-62
2023/08/18 07:04:24;;;;;;;;;;;23.20;64.40;;;;;;10160997;28;95042;-62
2023/08/18 07:09:27;;;;;;;;;;;23.20;64.50;;;;;;10153858;28;94640;-62
2023/08/18 07:14:29;;;;;;;;;;;23.20;64.50;;;;;;10133540;28;92950;-61
2023/08/18 07:19:31;;;;;;;;;;;23.20;64.60;;;;;;10144723;28;93584;-62
2023/08/18 07:24:33;;;;;;;;;;;23.20;64.60;;;;;;10154481;28;94838;-63
2023/08/18 07:29:35;;;;;;;;;;;23.20;64.60;;;;;;10133919;28;96312;-62
2023/08/18 07:34:37;;;;;;;;;;;23.20;64.60;;;;;;10131086;28;93473;-61
2023/08/18 07:39:39;;;;;;;;;;;23.20;64.90;;;;;;10142638;28;93506;-61
2023/08/18 07:44:41;;;;;;;;;;;23.20;65.40;;;;;;10141467;28;94221;-61
2023/08/18 07:49:45;;;;;;;;;;;23.20;65.40;;;;;;10157200;28;94707;-61
2023/08/18 07:54:47;;;;;;;;;;;23.20;65.20;;;;;;10161067;28;94525;-62
2023/08/18 07:59:49;;;;;;;;;;;23.10;64.80;;;;;;10132519;28;93029;-62
2023/08/18 08:04:51;;;;;;;;;;;23.20;64.90;;;;;;10152457;28;92784;-63
2023/08/18 08:09:56;;;;;;;;;;;23.10;64.90;;;;;;10168729;28;94195;-62
2023/08/18 08:14:58;;;;;;;;;;;23.10;65.00;;;;;;10125410;28;93701;-62
2023/08/18 08:20:05;;;;;;;;;;;23.00;65.10;;;;;;10141471;28;95958;-63
2023/08/18 08:25:08;;;;;;;;;;;23.00;65.40;;;;;;10111779;28;94355;-63
2023/08/18 08:30:11;;;;;;;;;;;23.10;65.50;;;;;;10163644;28;94620;-64
2023/08/18 08:35:28;;;;;;;;;;;23.00;65.50;;;;;;10137817;28;94229;-63
2023/08/18 08:40:30;;;;;;;;;;;23.00;65.40;;;;;;10138357;28;93540;-63
2023/08/18 08:45:33;;;;;;;;;;;23.00;65.50;;;;;;10162099;28;95027;-64
2023/08/18 08:50:38;;;;;;;;;;;23.00;65.50;;;;;;10170030;28;94951;-62
2023/08/18 08:55:42;;;;;;;;;;;23.00;66.10;;;;;;10152030;28;93917;-63
2023/08/18 09:00:44;;;;;;;;;;;23.00;66.60;;;;;;10141514;28;94139;-63
2023/08/18 09:05:45;;;;;;;;;;;23.10;66.80;;;;;;10154913;28;93573;-63
2023/08/18 09:10:48;;;;;;;;;;;23.10;66.20;;;;;;10147674;28;96595;-63
2023/08/18 09:15:50;;;;;;;;;;;23.10;66.20;;;;;;10140211;28;93456;-63
2023/08/18 09:20:53;;;;;;;;;;;23.00;66.20;;;;;;10142398;28;94504;-63
2023/08/18 09:25:56;;;;;;;;;;;23.00;66.20;;;;;;10145713;28;94419;-63
2023/08/18 09:30:59;;;;;;;;;;;23.00;66.40;;;;;;10127897;28;94491;-63
2023/08/18 09:36:01;;;;;;;;;;;23.00;66.30;;;;;;10119398;28;94149;-63
2023/08/18 09:41:03;;;;;;;;;;;23.00;66.30;;;;;;10129607;28;94612;-63
2023/08/18 09:46:06;;;;;;;;;;;23.00;66.30;;;;;;10128624;28;93736;-63
2023/08/18 09:51:08;;;;;;;;;;;23.00;66.30;;;;;;10129708;28;94581;-63
2023/08/18 09:56:15;;;;;;;;;;;23.00;66.30;;;;;;10154545;28;93949;-64
2023/08/18 10:01:18;;;;;;;;;;;23.00;66.30;;;;;;10127522;28;97108;-63
2023/08/18 10:06:21;;;;;;;;;;;23.00;66.30;;;;;;10138298;28;93778;-64
2023/08/18 10:11:23;;;;;;;;;;;23.00;66.30;;;;;;10121776;28;94407;-64
2023/08/18 10:16:31;;;;;;;;;;;23.00;66.20;;;;;;10128951;28;96690;-63
2023/08/18 10:21:32;;;;;;;;;;;23.10;66.30;;;;;;10130925;28;94976;-63
2023/08/18 10:26:34;;;;;;;;;;;23.00;66.30;;;;;;10154244;28;94417;-64
2023/08/18 10:31:36;;;;;;;;;;;23.10;66.30;;;;;;10137995;28;94500;-64
2023/08/18 10:36:38;;;;;;;;;;;23.10;66.40;;;;;;10162681;28;92955;-64
2023/08/18 10:41:41;;;;;;;;;;;23.10;66.20;;;;;;10147093;28;93484;-63
2023/08/18 10:46:43;;;;;;;;;;;23.10;66.20;;;;;;10111746;28;93316;-64
2023/08/18 10:51:44;;;;;;;;;;;23.20;66.10;;;;;;10132314;28;96180;-63
2023/08/18 10:56:47;;;;;;;;;;;23.20;66.10;;;;;;10135937;28;94098;-64
2023/08/18 11:01:49;;;;;;;;;;;23.30;66.00;;;;;;10141759;28;94361;-63
2023/08/18 11:06:52;;;;;;;;;;;23.30;65.80;;;;;;10162411;28;114205;-63
2023/08/18 11:11:54;;;;;;;;;;;23.40;65.80;;;;;;10156475;28;94770;-64
2023/08/18 11:16:57;;;;;;;;;;;23.50;65.70;;;;;;10128592;28;93375;-63
2023/08/18 11:21:59;;;;;;;;;;;23.50;65.60;;;;;;10113674;28;94700;-63
2023/08/18 11:27:01;;;;;;;;;;;23.50;65.70;;;;;;10141382;28;93853;-63
2023/08/18 11:32:03;;;;;;;;;;;23.50;65.60;;;;;;10131951;28;93397;-63
2023/08/18 11:37:10;;;;;;;;;;;23.50;65.60;;;;;;10117012;28;93231;-64
2023/08/18 11:42:12;;;;;;;;;;;23.50;65.60;;;;;;10152968;28;97191;-64
2023/08/18 11:47:14;;;;;;;;;;;23.60;65.60;;;;;;10136173;28;94430;-63
2023/08/18 11:52:18;;;;;;;;;;;23.60;65.60;;;;;;10142453;28;94664;-64
2023/08/18 11:57:20;;;;;;;;;;;23.60;65.40;;;;;;10149783;28;96204;-64
2023/08/18 12:02:22;;;;;;;;;;;23.60;65.60;;;;;;10162404;28;94406;-62
2023/08/18 12:07:24;;;;;;;;;;;23.60;65.60;;;;;;10153069;28;93361;-62
2023/08/18 12:12:31;;;;;;;;;;;23.60;65.60;;;;;;10147195;28;94492;-62
2023/08/18 12:17:33;;;;;;;;;;;23.60;65.70;;;;;;10155648;28;92712;-62
2023/08/18 12:22:35;;;;;;;;;;;23.70;66.20;;;;;;10136781;28;94059;-62
2023/08/18 12:27:37;;;;;;;;;;;23.70;66.60;;;;;;10134118;28;94655;-63
2023/08/18 12:32:39;;;;;;;;;;;23.70;67.30;;;;;;10149100;28;95909;-61
2023/08/18 12:37:42;;;;;;;;;;;23.70;67.40;;;;;;10143775;28;93536;-66
2023/08/18 12:42:44;;;;;;;;;;;23.80;67.60;;;;;;10144744;28;94495;-65
2023/08/18 12:47:45;;;;;;;;;;;23.80;67.80;;;;;;10133101;28;93793;-64
2023/08/18 12:52:47;;;;;;;;;;;23.80;68.10;;;;;;10132463;28;94576;-65
2023/08/18 12:57:49;;;;;;;;;;;23.80;68.50;;;;;;10164697;28;93399;-65
2023/08/18 13:02:51;;;;;;;;;;;23.80;69.40;;;;;;10150880;28;93485;-65
2023/08/18 13:07:53;;;;;;;;;;;23.80;69.70;;;;;;10152065;28;93732;-65
2023/08/18 13:12:55;;;;;;;;;;;23.80;69.70;;;;;;10148508;28;93235;-65
2023/08/18 13:17:58;;;;;;;;;;;23.80;70.00;;;;;;10156066;28;94020;-64
2023/08/18 13:23:00;;;;;;;;;;;23.80;69.90;;;;;;10175443;28;96746;-64
2023/08/18 13:28:04;;;;;;;;;;;23.80;70.00;;;;;;10152039;28;93896;-64
2023/08/18 13:33:06;;;;;;;;;;;23.80;70.00;;;;;;10147611;28;94110;-64
2023/08/18 13:38:08;;;;;;;;;;;23.80;70.20;;;;;;10138956;28;93408;-64
2023/08/18 13:43:11;;;;;;;;;;;23.80;70.40;;;;;;10161408;28;94155;-64
2023/08/18 13:48:12;;;;;;;;;;;23.80;70.60;;;;;;10136972;28;94150;-64
2023/08/18 13:53:14;;;;;;;;;;;23.90;70.90;;;;;;10154716;28;95316;-65
2023/08/18 13:58:17;;;;;;;;;;;23.80;70.90;;;;;;10159773;28;93504;-64
2023/08/18 14:03:19;;;;;;;;;;;23.90;71.30;;;;;;10129413;28;94462;-64
2023/08/18 14:08:20;;;;;;;;;;;23.90;71.30;;;;;;10145612;28;94409;-64
2023/08/18 14:13:23;;;;;;;;;;;23.80;71.20;;;;;;10131643;28;96197;-64
2023/08/18 14:18:25;;;;;;;;;;;23.80;71.10;;;;;;10131624;28;93840;-65
2023/08/18 14:23:28;;;;;;;;;;;23.80;71.00;;;;;;10140341;28;93991;-64
2023/08/18 14:28:30;;;;;;;;;;;23.80;71.10;;;;;;10130629;28;94436;-65
2023/08/18 14:33:32;;;;;;;;;;;23.80;70.90;;;;;;10135502;28;93561;-64
2023/08/18 14:38:47;;;;;;;;;;;23.70;70.80;;;;;;10120710;28;93491;-64
2023/08/18 14:43:48;;;;;;;;;;;23.70;70.70;;;;;;10153413;28;94013;-64
2023/08/18 14:48:50;;;;;;;;;;;23.70;70.60;;;;;;10165927;28;92736;-66
2023/08/18 14:53:52;;;;;;;;;;;23.70;70.70;;;;;;10156307;28;94996;-64
2023/08/18 14:58:54;;;;;;;;;;;23.70;71.20;;;;;;10169639;28;94612;-64
2023/08/18 15:03:55;;;;;;;;;;;23.80;72.40;;;;;;10154994;28;97500;-64
2023/08/18 15:08:58;;;;;;;;;;;23.80;72.50;;;;;;10162894;28;93878;-65
2023/08/18 15:14:00;;;;;;;;;;;23.80;72.80;;;;;;10161550;28;94349;-64
2023/08/18 15:19:02;;;;;;;;;;;23.90;73.30;;;;;;10156010;28;93481;-65
2023/08/18 15:24:07;;;;;;;;;;;23.90;73.10;;;;;;10171528;28;93826;-65
2023/08/18 15:29:09;;;;;;;;;;;23.90;73.40;;;;;;10156474;28;93500;-65
2023/08/18 15:34:12;;;;;;;;;;;23.90;73.20;;;;;;10102844;28;94436;-65
2023/08/18 15:39:14;;;;;;;;;;;23.90;73.70;;;;;;10155454;28;92483;-65
2023/08/18 15:44:17;;;;;;;;;;;23.90;74.20;;;;;;10162268;28;94437;-68
2023/08/18 15:49:19;;;;;;;;;;;23.90;74.00;;;;;;10140051;28;93735;-70
2023/08/18 15:54:21;;;;;;;;;;;24.00;73.90;;;;;;10153287;28;98149;-63
2023/08/18 15:59:25;;;;;;;;;;;24.20;74.50;;;;;;10138956;28;94304;-64
2023/08/18 16:04:28;;;;;;;;;;;24.20;74.60;;;;;;10159340;28;94836;-61
2023/08/18 16:09:30;;;;;;;;;;;24.20;75.10;;;;;;10156361;28;93506;-62
2023/08/18 16:14:32;;;;;;;;;;;24.20;74.90;;;;;;10161386;28;93487;-64
2023/08/18 16:19:36;;;;;;;;;;;24.30;75.30;;;;;;10154753;28;94012;-69
2023/08/18 16:24:38;;;;;;;;;;;24.30;75.40;;;;;;10159104;28;94756;-68
2023/08/18 16:29:41;;;;;;;;;;;24.30;75.10;;;;;;10152677;28;93802;-69
2023/08/18 16:34:43;;;;;;;;;;;24.30;76.70;;;;;;10152521;28;94665;-66
2023/08/18 16:39:45;;;;;;;;;;;24.40;75.60;;;;;;10149909;28;93309;-67
2023/08/18 16:44:47;;;;;;;;;;;24.40;75.80;;;;;;10131087;28;96273;-67
2023/08/18 16:49:49;;;;;;;;;;;24.40;75.80;;;;;;10132846;28;93707;-67
2023/08/18 16:54:51;;;;;;;;;;;24.40;75.70;;;;;;10130259;28;94491;-66
2023/08/18 16:59:53;;;;;;;;;;;24.40;75.50;;;;;;10163181;28;93405;-66
2023/08/18 17:04:55;;;;;;;;;;;24.40;75.40;;;;;;10136752;28;93397;-67
2023/08/18 17:09:58;;;;;;;;;;;24.40;75.00;;;;;;10153025;28;94357;-66
2023/08/18 17:15:00;;;;;;;;;;;24.40;75.00;;;;;;10154942;28;93950;-66
2023/08/18 17:20:02;;;;;;;;;;;24.40;75.10;;;;;;10154982;28;94994;-66
2023/08/18 17:25:05;;;;;;;;;;;24.40;75.00;;;;;;10173105;28;94552;-66
2023/08/18 17:30:07;;;;;;;;;;;24.40;75.00;;;;;;10145309;28;94640;-67
2023/08/18 17:35:09;;;;;;;;;;;24.30;74.90;;;;;;10137824;28;96865;-67
2023/08/18 17:40:11;;;;;;;;;;;24.30;75.90;;;;;;10162419;28;93948;-66
2023/08/18 17:45:13;;;;;;;;;;;24.30;74.80;;;;;;10174190;28;94675;-66
2023/08/18 17:50:15;;;;;;;;;;;24.30;74.80;;;;;;10156934;28;94430;-64
2023/08/18 17:55:17;;;;;;;;;;;24.30;74.80;;;;;;10148958;28;94422;-67
2023/08/18 18:00:19;;;;;;;;;;;24.30;74.80;;;;;;10152030;28;93517;-66
2023/08/18 18:05:21;;;;;;;;;;;24.30;74.90;;;;;;10127206;28;94029;-66
2023/08/18 18:10:22;;;;;;;;;;;24.30;74.80;;;;;;10136185;28;93008;-66
2023/08/18 18:15:24;;;;;;;;;;;24.30;74.80;;;;;;10156942;28;95045;-66
2023/08/18 18:20:27;;;;;;;;;;;24.20;74.60;;;;;;10134865;28;93506;-66
2023/08/18 18:25:29;;;;;;;;;;;24.30;74.60;;;;;;10100328;28;97045;-66
2023/08/18 18:30:31;;;;;;;;;;;24.20;74.40;;;;;;10132967;28;93424;-66
2023/08/18 18:35:33;;;;;;;;;;;24.20;74.40;;;;;;10143734;28;94619;-65
2023/08/18 18:40:35;;;;;;;;;;;24.20;74.30;;;;;;10143742;28;94395;-64
2023/08/18 18:45:36;;;;;;;;;;;24.20;74.10;;;;;;10131562;28;94513;-64
2023/08/18 18:50:38;;;;;;;;;;;24.20;74.20;;;;;;10106352;28;94396;-64
2023/08/18 18:55:41;;;;;;;;;;;24.20;74.20;;;;;;10153894;28;93964;-65
2023/08/18 19:00:43;;;;;;;;;;;24.20;74.30;;;;;;10137581;28;93846;-64
2023/08/18 19:05:47;;;;;;;;;;;24.20;74.20;;;;;;10140652;28;93723;-63
2023/08/18 19:10:49;;;;;;;;;;;24.20;74.30;;;;;;10149834;28;96750;-65
2023/08/18 19:15:51;;;;;;;;;;;24.20;73.90;;;;;;10160994;28;97934;-67
2023/08/18 19:20:53;;;;;;;;;;;24.20;74.10;;;;;;10139747;28;94460;-65
2023/08/18 19:25:55;;;;;;;;;;;24.20;74.10;;;;;;10133602;28;93521;-63
2023/08/18 19:30:58;;;;;;;;;;;24.20;74.30;;;;;;10125070;28;94009;-65
2023/08/18 19:36:04;;;;;;;;;;;24.20;74.20;;;;;;10142030;28;94748;-64
2023/08/18 19:41:07;;;;;;;;;;;24.20;74.70;;;;;;10136183;28;95008;-64
2023/08/18 19:46:09;;;;;;;;;;;24.20;74.70;;;;;;10136645;28;94557;-65
2023/08/18 19:51:11;;;;;;;;;;;24.20;74.70;;;;;;10133956;28;92977;-65
2023/08/18 19:56:13;;;;;;;;;;;24.20;74.80;;;;;;10152736;28;94392;-64
2023/08/18 20:01:14;;;;;;;;;;;24.20;74.70;;;;;;10156635;28;94797;-65
2023/08/18 20:06:19;;;;;;;;;;;24.20;74.90;;;;;;10145258;28;95922;-65
2023/08/18 20:11:21;;;;;;;;;;;24.10;74.80;;;;;;10132861;28;94080;-65
2023/08/18 20:16:23;;;;;;;;;;;24.10;74.90;;;;;;10145204;28;94533;-65
2023/08/18 20:21:25;;;;;;;;;;;24.10;74.80;;;;;;10117872;28;93504;-65
2023/08/18 20:26:28;;;;;;;;;;;24.10;75.00;;;;;;10130750;28;94309;-65
2023/08/18 20:31:30;;;;;;;;;;;24.10;75.00;;;;;;10140204;28;94010;-66
2023/08/18 20:36:31;;;;;;;;;;;24.10;75.90;;;;;;10151583;28;94079;-64
2023/08/18 20:41:33;;;;;;;;;;;24.10;75.00;;;;;;10157021;28;93813;-65
2023/08/18 20:46:35;;;;;;;;;;;24.00;74.90;;;;;;10126265;28;93450;-65
2023/08/18 20:51:40;;;;;;;;;;;24.00;74.90;;;;;;10154025;28;93694;-65
2023/08/18 20:56:42;;;;;;;;;;;24.00;75.00;;;;;;10155991;28;97107;-64
2023/08/18 21:01:44;;;;;;;;;;;24.00;75.10;;;;;;10169093;28;93161;-66
2023/08/18 21:06:46;;;;;;;;;;;24.00;75.00;;;;;;10125558;28;93947;-65
2023/08/18 21:11:49;;;;;;;;;;;24.00;75.00;;;;;;10119042;28;93865;-65
2023/08/18 21:16:50;;;;;;;;;;;24.00;75.10;;;;;;10160363;28;94397;-65
2023/08/18 21:21:52;;;;;;;;;;;24.00;75.20;;;;;;10135556;28;95047;-65
2023/08/18 21:26:54;;;;;;;;;;;24.00;75.20;;;;;;10142240;28;93564;-65
2023/08/18 21:31:56;;;;;;;;;;;24.00;75.10;;;;;;10153539;28;92694;-65
2023/08/18 21:36:58;;;;;;;;;;;24.00;75.00;;;;;;10133640;28;94158;-65
2023/08/18 21:42:00;;;;;;;;;;;23.90;75.20;;;;;;10122347;28;94438;-65
2023/08/18 21:47:02;;;;;;;;;;;23.90;75.10;;;;;;10141303;28;95816;-65
2023/08/18 21:52:04;;;;;;;;;;;23.90;75.10;;;;;;10142583;28;94440;-66
2023/08/18 21:57:05;;;;;;;;;;;23.90;75.10;;;;;;10134542;28;93677;-65
2023/08/18 22:02:08;;;;;;;;;;;23.90;75.00;;;;;;10166053;28;95034;-65
2023/08/18 22:07:09;;;;;;;;;;;23.90;74.90;;;;;;10152603;28;94438;-65
2023/08/18 22:12:11;;;;;;;;;;;23.90;74.80;;;;;;10140622;28;94062;-65
2023/08/18 22:17:13;;;;;;;;;;;23.90;74.80;;;;;;10139678;28;94944;-65
2023/08/18 22:22:15;;;;;;;;;;;23.90;74.70;;;;;;10140921;28;92729;-66
2023/08/18 22:27:34;;;;;;;;;;;23.90;74.60;;;;;;10137547;28;94570;-65
2023/08/18 22:32:36;;;;;;;;;;;23.80;74.50;;;;;;10141179;28;93349;-65
2023/08/18 22:37:42;;;;;;;;;;;23.80;74.40;;;;;;10127453;28;96434;-65
2023/08/18 22:42:45;;;;;;;;;;;23.90;74.40;;;;;;10142831;28;93886;-65
2023/08/18 22:47:47;;;;;;;;;;;23.90;74.30;;;;;;10137038;28;94771;-64
2023/08/18 22:52:49;;;;;;;;;;;23.80;74.30;;;;;;10139767;28;93259;-65
2023/08/18 22:57:51;;;;;;;;;;;23.90;74.30;;;;;;10148031;28;93414;-66
2023/08/18 23:02:53;;;;;;;;;;;23.90;74.20;;;;;;10136263;28;93482;-65
2023/08/18 23:07:55;;;;;;;;;;;23.90;74.20;;;;;;10156389;28;93529;-66
2023/08/18 23:12:58;;;;;;;;;;;23.90;74.10;;;;;;10137534;28;93836;-65
2023/08/18 23:18:00;;;;;;;;;;;23.90;74.10;;;;;;10134791;28;94462;-65
2023/08/18 23:23:02;;;;;;;;;;;23.90;74.00;;;;;;10118318;28;94752;-66
2023/08/18 23:28:04;;;;;;;;;;;23.90;73.90;;;;;;10131398;28;96718;-65
2023/08/18 23:33:05;;;;;;;;;;;23.80;73.80;;;;;;10153944;28;93586;-65
2023/08/18 23:38:07;;;;;;;;;;;23.80;73.80;;;;;;10133929;28;93481;-65
2023/08/18 23:43:09;;;;;;;;;;;23.80;73.70;;;;;;10133276;28;94400;-65
2023/08/18 23:48:12;;;;;;;;;;;23.80;73.70;;;;;;10054427;28;2842459;-65
2023/08/18 23:53:14;;;;;;;;;;;23.80;73.60;;;;;;10136099;28;94363;-65
2023/08/18 23:58:17;;;;;;;;;;;23.80;73.50;;;;;;10137334;28;93750;-66
